עמוד ראשי
METAR-TAF:

METAR-TAF

שדות תעופה :

נמל התעופה רמון

אילת, ישראל

קו רוחב: 29-43-25N, קו אורך: 35-00-41E, גובה: 88מטר

תצפית מזג אוויר נוכחית

הדו"ח נערך לפני 2 שעות ו 48דקות, בשעה 19:50 UTC
רוח 15קשר מכיוון צפון
טמפרטורת 33 צלסיוס
לחות 20%
לחץ 1005 hPa
ראות 10 קילומטר או יותר
ללא עננים שבסיסם נמוך מ 5000 רגל או קומולונימבוס

METAR: LLER 251950Z 01015KT CAVOK 33/07 Q1005

זמן: 01:38 (22:38 UTC)

תחזית

הדו"ח נערך לפני 5 שעות ו 35דקות, בשעה 17:03 UTC
תחזית בתוקף מ 25 ב 18 UTC עד 26 ב 18 UTC
רוח 18קשר מכיוון צפון/צפון-מזרח
ראות 10 קילומטר או יותר
ללא עננים שבסיסם נמוך מ 5000 רגל או קומולונימבוס
הסתברות 40% :
זמנית מ -
25 ב 18 UTC עד 25 ב 20 UTC
רוח 18קשר מכיוון צפון-מערב
יעשה מ
25 ב 20 UTC עד 25 ב 22 UTC
רוח 10קשר מכיוון צפון
יעשה מ
26 ב 07 UTC עד 26 ב 09 UTC
רוח 17קשר מכיוון צפון/צפון-מזרח
הסתברות 40%
26 ב 16 UTC עד 26 ב 18 UTC
רוח 18קשר מכיוון צפון-מערב

TAF: LLER 251703Z 2518/2618 02018KT CAVOK PROB40 TEMPO 2518/2520 32018KT BECMG 2520/2522 36010KT BECMG 2607/2609 02017KT PROB40 2616/2618 32018KT TX42/2613Z TN27/2603Z

תצפיות ותחזיות מזג אוויר לגבי יותר מ- 4,000 שדות תעופה ברחבי העולם. דוחות METAR ו- TAF.

התחנות הזמינות מסומנות בנקודות צהובות ואדומות על גבי המפה.

העבר את העכבר לנקודה הצבעונית על מנת לראות את שם התחנה.

לאחר מכן, לחץ כדי לראות את תוכן ואת תחזיות מזג האוויר.

כדי לשנות את המפה: לחץ על הכפתורים הירוקים עם הפלוס השחור כדי להתקרב; על הכפתור הירוק עם המקף כדי להתרחק; או בחיצים הירוקים למפות סמוכות.


METAR-TAF: